Time;durP1;ratioP1;P1;durP2;ratioP2;P2;SDS_P1;SDS_P2;PMS_P1;PMS_P2;Temp;Humidity;BMP_temperature;BMP_pressure;BME280_temperature;BME280_humidity;BME280_pressure;Samples;Min_cycle;Max_cycle;Signal;HPM_P1;HPM_P2
2022/04/07 00:01:51;;;;;;;5.47;2.78;;;9.20;99.90;;;;;;5036344;28;20360;-76
2022/04/07 00:04:16;;;;;;;5.07;2.58;;;9.20;99.90;;;;;;5036231;28;20044;-78
2022/04/07 00:06:42;;;;;;;4.43;2.55;;;9.20;99.90;;;;;;5036096;28;20029;-77
2022/04/07 00:09:08;;;;;;;5.60;2.55;;;9.20;99.90;;;;;;5018518;28;20051;-80
2022/04/07 00:11:33;;;;;;;4.15;2.65;;;9.30;99.90;;;;;;5036414;28;20436;-79
2022/04/07 00:13:59;;;;;;;3.67;2.20;;;9.30;99.90;;;;;;5018117;28;20029;-77
2022/04/07 00:16:25;;;;;;;6.60;2.20;;;9.30;99.90;;;;;;5035515;28;20025;-77
2022/04/07 00:18:50;;;;;;;4.68;2.60;;;9.30;99.90;;;;;;5019628;28;20086;-78
2022/04/07 00:21:24;;;;;;;4.78;2.47;;;9.30;99.90;;;;;;5022824;28;20075;-80
2022/04/07 00:23:51;;;;;;;5.13;2.17;;;9.20;99.90;;;;;;5035749;28;20493;-79
2022/04/07 00:26:17;;;;;;;2.47;1.80;;;9.20;99.90;;;;;;5034746;28;20089;-77
2022/04/07 00:28:43;;;;;;;6.22;2.20;;;9.20;99.90;;;;;;5032993;28;20460;-77
2022/04/07 00:31:10;;;;;;;3.13;1.83;;;9.20;99.90;;;;;;5016839;28;20032;-77
2022/04/07 00:33:35;;;;;;;6.20;1.88;;;9.20;99.90;;;;;;5033486;28;20152;-79
2022/04/07 00:36:03;;;;;;;4.47;1.98;;;9.20;99.90;;;;;;5034950;28;20504;-78
2022/04/07 00:38:28;;;;;;;3.30;1.70;;;9.10;99.90;;;;;;5034657;28;20128;-78
2022/04/07 00:40:54;;;;;;;2.30;1.33;;;9.00;99.90;;;;;;5018537;28;20072;-80
2022/04/07 00:43:30;;;;;;;5.38;1.65;;;9.00;99.90;;;;;;5020420;28;20021;-81
2022/04/07 00:45:56;;;;;;;2.25;1.42;;;8.90;99.90;;;;;;5041167;28;20021;-77
2022/04/07 00:48:22;;;;;;;4.00;1.33;;;8.90;99.90;;;;;;5034136;28;20021;-78
2022/04/07 00:50:47;;;;;;;3.83;1.48;;;8.90;99.90;;;;;;5033465;28;20089;-81
2022/04/07 00:53:13;;;;;;;2.63;1.45;;;8.90;99.90;;;;;;5021558;28;20036;-78
2022/04/07 00:55:41;;;;;;;3.08;1.23;;;8.90;99.90;;;;;;5033440;28;20373;-78
2022/04/07 00:58:07;;;;;;;2.55;1.10;;;9.00;99.90;;;;;;5033008;28;20029;-78
2022/04/07 01:00:34;;;;;;;5.07;1.30;;;9.00;99.90;;;;;;5033840;28;20049;-76
2022/04/07 01:03:00;;;;;;;4.97;1.40;;;9.10;99.90;;;;;;5034624;28;20022;-77
2022/04/07 01:05:25;;;;;;;2.53;1.27;;;9.10;99.90;;;;;;5033396;28;20022;-78
2022/04/07 01:07:51;;;;;;;2.72;1.75;;;9.20;99.90;;;;;;5033414;28;20035;-78
2022/04/07 01:10:20;;;;;;;4.35;1.30;;;9.20;99.90;;;;;;5033720;28;20053;-77
2022/04/07 01:12:45;;;;;;;2.55;1.17;;;9.20;99.90;;;;;;5016125;28;20095;-78
2022/04/07 01:15:11;;;;;;;4.35;1.75;;;9.30;99.90;;;;;;5014744;28;20029;-76
2022/04/07 01:17:38;;;;;;;3.55;1.40;;;9.30;99.90;;;;;;5033253;28;20044;-78
2022/04/07 01:20:06;;;;;;;3.33;1.70;;;9.30;99.90;;;;;;5033431;28;20049;-77
2022/04/07 01:22:34;;;;;;;5.97;1.55;;;9.30;99.90;;;;;;5034410;28;20029;-79
2022/04/07 01:25:00;;;;;;;2.92;1.67;;;9.20;99.90;;;;;;5033564;28;20086;-78
2022/04/07 01:27:27;;;;;;;6.75;1.55;;;9.20;99.90;;;;;;5015784;28;20029;-78
2022/04/07 01:29:52;;;;;;;2.58;1.48;;;9.20;99.90;;;;;;5033299;28;20029;-78
2022/04/07 01:32:23;;;;;;;3.53;1.33;;;9.20;99.90;;;;;;5016299;28;20029;-77
2022/04/07 01:34:49;;;;;;;4.22;1.40;;;9.20;99.90;;;;;;5034405;28;20117;-77
2022/04/07 01:37:18;;;;;;;3.58;1.42;;;9.30;99.90;;;;;;5032709;28;20485;-76
2022/04/07 01:39:44;;;;;;;3.67;1.55;;;9.40;99.90;;;;;;5032730;28;20032;-79
2022/04/07 01:42:13;;;;;;;5.10;1.80;;;9.40;99.90;;;;;;5033157;28;20096;-76
2022/04/07 01:44:44;;;;;;;2.85;1.20;;;9.40;99.90;;;;;;5033044;28;20489;-77
2022/04/07 01:47:12;;;;;;;3.35;1.50;;;9.40;99.90;;;;;;5032517;28;20104;-77
2022/04/07 01:49:40;;;;;;;6.20;1.55;;;9.40;99.90;;;;;;5036841;28;20032;-77
2022/04/07 01:52:07;;;;;;;2.22;1.65;;;9.40;99.90;;;;;;5020078;28;20036;-77
2022/04/07 01:54:34;;;;;;;3.85;1.35;;;9.40;99.90;;;;;;5038475;28;20354;-76
2022/04/07 01:57:00;;;;;;;5.45;1.40;;;9.40;99.90;;;;;;5044779;22;20030;-85
2022/04/07 01:59:27;;;;;;;5.72;1.38;;;9.40;99.90;;;;;;5047013;28;20048;-86
2022/04/07 02:01:53;;;;;;;4.10;1.23;;;9.40;99.90;;;;;;5048600;28;20110;-83
2022/04/07 02:04:19;;;;;;;4.93;1.52;;;9.40;99.90;;;;;;5065830;28;20033;-83
2022/04/07 02:06:44;;;;;;;3.78;1.20;;;9.40;99.90;;;;;;5065631;28;20097;-84
2022/04/07 02:09:10;;;;;;;3.90;1.60;;;9.40;99.90;;;;;;5065476;28;20033;-84
2022/04/07 02:11:36;;;;;;;6.78;1.45;;;9.50;99.90;;;;;;5047825;28;20025;-85
2022/04/07 02:14:01;;;;;;;3.00;1.15;;;9.50;99.90;;;;;;5047191;28;20123;-83
2022/04/07 02:16:30;;;;;;;2.13;1.20;;;9.50;99.90;;;;;;5049079;28;20045;-84
2022/04/07 02:18:57;;;;;;;4.50;1.42;;;9.50;99.90;;;;;;5065094;28;20025;-85
2022/04/07 02:21:22;;;;;;;2.72;1.25;;;9.50;99.90;;;;;;5062868;28;20025;-86
2022/04/07 02:23:49;;;;;;;2.55;1.10;;;9.60;99.90;;;;;;5044484;28;20089;-84
2022/04/07 02:26:16;;;;;;;4.63;1.92;;;9.60;99.90;;;;;;5063963;28;20056;-84
2022/04/07 02:28:43;;;;;;;2.45;1.15;;;9.60;99.90;;;;;;5045079;28;20025;-86
2022/04/07 02:31:10;;;;;;;5.85;1.58;;;9.60;99.90;;;;;;5044270;28;20070;-86
2022/04/07 02:33:36;;;;;;;4.20;1.42;;;9.60;99.90;;;;;;5064309;28;20036;-87
2022/04/07 02:36:07;;;;;;;4.75;1.65;;;9.50;99.90;;;;;;5064366;28;20045;-84
2022/04/07 02:38:34;;;;;;;6.20;1.50;;;9.50;99.90;;;;;;5044352;28;20025;-85
2022/04/07 02:41:00;;;;;;;2.55;1.40;;;9.50;99.90;;;;;;5046048;28;20084;-84
2022/04/07 02:43:26;;;;;;;5.05;1.50;;;9.40;99.90;;;;;;5045647;28;20021;-86
2022/04/07 02:45:51;;;;;;;8.38;1.75;;;9.40;99.90;;;;;;5042328;28;20472;-86
2022/04/07 02:48:17;;;;;;;3.72;1.30;;;9.30;99.90;;;;;;5044441;28;20384;-84
2022/04/07 02:50:44;;;;;;;5.57;1.30;;;9.30;99.90;;;;;;5046766;28;20017;-82
2022/04/07 02:53:09;;;;;;;2.85;1.30;;;9.30;99.90;;;;;;5048486;28;20044;-84
2022/04/07 02:55:35;;;;;;;5.90;1.50;;;9.40;99.90;;;;;;5048539;28;20024;-84
2022/04/07 02:58:01;;;;;;;3.45;1.38;;;9.40;99.90;;;;;;5047825;28;20037;-85
2022/04/07 03:00:26;;;;;;;4.05;1.40;;;9.40;99.90;;;;;;5046106;28;20571;-86
2022/04/07 03:02:52;;;;;;;5.85;1.85;;;9.40;99.90;;;;;;5065364;28;20021;-86
2022/04/07 03:05:18;;;;;;;3.30;1.42;;;9.40;99.90;;;;;;5046794;28;20430;-85
2022/04/07 03:07:43;;;;;;;4.30;1.75;;;9.40;99.90;;;;;;5047416;28;20048;-85
2022/04/07 03:10:09;;;;;;;2.67;1.15;;;9.40;99.90;;;;;;5046576;28;20072;-86
2022/04/07 03:12:37;;;;;;;4.35;1.80;;;9.30;99.90;;;;;;5064449;28;20055;-86
2022/04/07 03:15:05;;;;;;;3.28;1.20;;;9.30;99.90;;;;;;5045909;28;20025;-86
2022/04/07 03:17:33;;;;;;;2.88;1.48;;;9.30;99.90;;;;;;5064134;28;20064;-84
2022/04/07 03:19:59;;;;;;;4.03;1.58;;;9.30;99.90;;;;;;5035783;28;20024;-87
2022/04/07 03:22:25;;;;;;;5.32;1.45;;;9.30;99.90;;;;;;5047010;28;20057;-87
2022/04/07 03:24:52;;;;;;;2.58;1.73;;;9.30;99.90;;;;;;5045387;28;20021;-85
2022/04/07 03:27:17;;;;;;;3.15;1.40;;;9.30;99.90;;;;;;5027510;28;20124;-87
2022/04/07 03:29:45;;;;;;;6.57;1.60;;;9.30;99.90;;;;;;5027377;28;20026;-86
2022/04/07 03:32:12;;;;;;;5.80;1.60;;;9.30;99.90;;;;;;5027108;28;20032;-85
2022/04/07 03:34:38;;;;;;;3.22;1.55;;;9.30;99.90;;;;;;5045094;28;20034;-85
2022/04/07 03:37:04;;;;;;;4.78;1.52;;;9.40;99.90;;;;;;5045642;28;20164;-85
2022/04/07 03:39:31;;;;;;;3.42;1.10;;;9.30;99.90;;;;;;5028720;28;20028;-85
2022/04/07 03:41:57;;;;;;;5.57;1.20;;;9.40;99.90;;;;;;5027158;28;20026;-85
2022/04/07 03:44:22;;;;;;;6.45;2.10;;;9.40;99.90;;;;;;5031415;28;20023;-85
2022/04/07 03:46:48;;;;;;;3.63;1.30;;;9.40;99.90;;;;;;5064863;28;20028;-86
2022/04/07 03:49:14;;;;;;;6.78;1.13;;;9.40;99.90;;;;;;5047461;28;20033;-85
2022/04/07 03:51:39;;;;;;;6.03;1.33;;;9.40;99.90;;;;;;5047303;28;20093;-86
2022/04/07 03:54:05;;;;;;;2.30;1.10;;;9.50;99.90;;;;;;5065548;28;20530;-86
2022/04/07 03:56:30;;;;;;;4.50;1.27;;;9.50;99.90;;;;;;5049410;28;20489;-85
2022/04/07 03:58:58;;;;;;;5.20;1.67;;;9.60;99.90;;;;;;5047796;28;20039;-84
2022/04/07 04:01:26;;;;;;;7.00;1.80;;;9.60;99.90;;;;;;5045385;28;20024;-85
2022/04/07 04:03:53;;;;;;;3.10;1.30;;;9.60;99.90;;;;;;5047659;28;20105;-85
2022/04/07 04:06:18;;;;;;;9.80;1.75;;;9.70;99.90;;;;;;5047112;28;20088;-83
2022/04/07 04:08:45;;;;;;;3.55;1.25;;;9.70;99.90;;;;;;5045919;28;20070;-85
2022/04/07 04:11:12;;;;;;;5.60;1.20;;;9.70;99.90;;;;;;5044185;28;20096;-86
2022/04/07 04:13:39;;;;;;;5.22;1.10;;;9.70;99.90;;;;;;5049495;28;20032;-85
2022/04/07 04:16:05;;;;;;;6.38;1.40;;;9.80;99.90;;;;;;5047828;28;20084;-84
2022/04/07 04:18:31;;;;;;;6.90;1.52;;;9.80;99.90;;;;;;5044932;28;20486;-86
2022/04/07 04:20:56;;;;;;;3.67;1.33;;;9.70;99.90;;;;;;5063455;28;20032;-84
2022/04/07 04:23:22;;;;;;;5.43;1.10;;;9.70;99.90;;;;;;5046514;28;20384;-85
2022/04/07 04:25:48;;;;;;;5.63;1.10;;;9.70;99.90;;;;;;5045238;28;20021;-84
2022/04/07 04:28:14;;;;;;;7.40;1.20;;;9.70;99.90;;;;;;5045295;28;20028;-84
2022/04/07 04:30:40;;;;;;;4.05;1.05;;;9.70;99.90;;;;;;5046146;28;20097;-85
2022/04/07 04:33:05;;;;;;;5.22;1.75;;;9.70;99.90;;;;;;5049699;28;20346;-85
2022/04/07 04:35:31;;;;;;;3.83;0.82;;;9.80;99.90;;;;;;5050754;28;20025;-84
2022/04/07 04:37:56;;;;;;;4.03;1.05;;;9.80;99.90;;;;;;5072611;28;20052;-84
2022/04/07 04:40:22;;;;;;;4.63;1.60;;;9.90;99.90;;;;;;5054417;28;20033;-83
2022/04/07 04:42:48;;;;;;;6.15;1.00;;;9.90;99.90;;;;;;5049020;28;20029;-86
2022/04/07 04:45:13;;;;;;;2.90;0.75;;;10.00;99.90;;;;;;5033709;28;20039;-85
2022/04/07 04:47:40;;;;;;;2.67;0.88;;;9.90;99.90;;;;;;5025670;28;20022;-84
2022/04/07 04:50:06;;;;;;;4.32;1.17;;;10.00;99.90;;;;;;5026333;28;20037;-83
2022/04/07 04:52:32;;;;;;;3.28;1.05;;;10.00;99.90;;;;;;5043204;28;20418;-85
2022/04/07 04:54:57;;;;;;;6.97;1.60;;;10.00;99.90;;;;;;5043432;28;20052;-84
2022/04/07 04:57:23;;;;;;;6.45;1.17;;;10.00;99.90;;;;;;5042444;28;20056;-86
2022/04/07 04:59:51;;;;;;;5.20;1.20;;;10.00;99.90;;;;;;5025134;28;20049;-88
2022/04/07 05:02:16;;;;;;;5.93;2.13;;;10.00;99.90;;;;;;5022693;28;20406;-85
2022/04/07 05:04:43;;;;;;;4.72;2.63;;;9.90;99.90;;;;;;5023567;28;20058;-85
2022/04/07 05:07:08;;;;;;;4.22;2.97;;;9.70;99.90;;;;;;5024840;28;20371;-85
2022/04/07 05:09:34;;;;;;;7.00;3.08;;;9.50;99.90;;;;;;5020374;28;20037;-86
2022/04/07 05:12:00;;;;;;;6.53;2.95;;;9.50;99.90;;;;;;5026692;28;20049;-87
2022/04/07 05:14:27;;;;;;;5.00;2.45;;;9.30;99.90;;;;;;5029530;28;20470;-85
2022/04/07 05:16:53;;;;;;;6.20;3.05;;;9.30;99.90;;;;;;5023345;28;20038;-88
2022/04/07 05:19:20;;;;;;;3.70;2.50;;;9.20;99.90;;;;;;5020062;28;20028;-85
2022/04/07 05:21:49;;;;;;;3.38;2.00;;;9.10;99.90;;;;;;5020351;28;20030;-86
2022/04/07 05:24:17;;;;;;;5.95;2.03;;;9.10;99.90;;;;;;5022384;28;20025;-85
2022/04/07 05:26:42;;;;;;;5.40;2.00;;;9.00;99.90;;;;;;5039464;28;20043;-85
2022/04/07 05:29:08;;;;;;;6.60;1.95;;;9.00;99.90;;;;;;5038797;28;20065;-85
2022/04/07 05:31:36;;;;;;;3.17;1.67;;;9.00;99.90;;;;;;5022802;28;20033;-85
2022/04/07 05:34:02;;;;;;;2.97;1.38;;;9.00;99.90;;;;;;5024171;28;20453;-86
2022/04/07 05:36:27;;;;;;;5.05;1.27;;;9.00;99.90;;;;;;5039513;28;20029;-87
2022/04/07 05:38:54;;;;;;;6.47;1.92;;;8.90;99.90;;;;;;5027101;28;20112;-88
2022/04/07 05:41:19;;;;;;;4.43;1.45;;;8.90;99.90;;;;;;5023356;28;20026;-86
2022/04/07 05:43:46;;;;;;;6.95;1.35;;;8.80;99.90;;;;;;5038013;28;20040;-86
2022/04/07 05:46:11;;;;;;;2.10;1.00;;;8.80;99.90;;;;;;5039982;28;20025;-87
2022/04/07 05:48:37;;;;;;;3.53;0.93;;;8.90;99.90;;;;;;5040653;28;20110;-86
2022/04/07 05:51:02;;;;;;;7.10;1.20;;;8.90;99.90;;;;;;5040539;28;20032;-87
2022/04/07 05:53:28;;;;;;;2.47;1.25;;;8.90;99.90;;;;;;5057674;28;20539;-85
2022/04/07 05:55:57;;;;;;;2.63;1.30;;;9.00;99.90;;;;;;5039697;28;20025;-87
2022/04/07 05:58:23;;;;;;;2.35;1.20;;;9.00;99.90;;;;;;5040631;28;20381;-87
2022/04/07 06:00:49;;;;;;;4.30;1.17;;;9.10;99.90;;;;;;5040306;28;20163;-86
2022/04/07 06:03:15;;;;;;;2.28;2.03;;;9.00;99.90;;;;;;5039779;28;20133;-85
2022/04/07 06:05:41;;;;;;;3.35;1.30;;;9.10;99.90;;;;;;5041332;28;20024;-85
2022/04/07 06:08:07;;;;;;;1.20;1.00;;;9.10;99.90;;;;;;5041679;28;20029;-86
2022/04/07 06:10:34;;;;;;;1.52;1.33;;;9.20;99.90;;;;;;5040165;28;20035;-87
2022/04/07 06:12:59;;;;;;;2.65;1.40;;;9.20;99.90;;;;;;5043561;28;20100;-87
2022/04/07 06:15:25;;;;;;;2.90;1.40;;;9.30;99.90;;;;;;5067397;28;20033;-85
2022/04/07 06:17:50;;;;;;;1.98;1.42;;;9.40;99.90;;;;;;5044958;28;20060;-83
2022/04/07 06:20:17;;;;;;;4.63;2.10;;;9.50;99.90;;;;;;5041712;28;20112;-86
2022/04/07 06:22:43;;;;;;;2.90;1.85;;;9.50;99.90;;;;;;5059001;28;20025;-87
2022/04/07 06:25:10;;;;;;;2.70;1.73;;;9.60;99.90;;;;;;5058570;28;20021;-86
2022/04/07 06:27:37;;;;;;;1.67;1.38;;;9.60;99.90;;;;;;5040731;28;20373;-87
2022/04/07 06:30:11;;;;;;;2.58;1.63;;;9.60;99.90;;;;;;5041457;28;20526;-86
2022/04/07 06:32:38;;;;;;;5.10;1.67;;;9.50;99.90;;;;;;5043567;28;20029;-89
2022/04/07 06:35:05;;;;;;;2.70;1.80;;;9.50;99.90;;;;;;5047897;28;20118;-87
2022/04/07 06:37:31;;;;;;;3.45;1.80;;;9.40;99.90;;;;;;5048023;28;20048;-87
2022/04/07 06:40:01;;;;;;;3.67;2.00;;;9.40;99.90;;;;;;5067909;28;20028;-87
2022/04/07 06:42:27;;;;;;;4.40;1.58;;;9.40;99.90;;;;;;5048414;28;20017;-89
2022/04/07 06:44:55;;;;;;;4.57;1.92;;;9.30;99.90;;;;;;5039193;28;20021;-87
2022/04/07 06:47:24;;;;;;;1.73;1.40;;;9.30;99.90;;;;;;5029670;28;20032;-87
2022/04/07 06:49:50;;;;;;;2.42;1.98;;;9.30;99.90;;;;;;5048310;28;20026;-87
2022/04/07 06:52:18;;;;;;;3.33;1.67;;;9.30;99.90;;;;;;5029337;28;20021;-87
2022/04/07 06:54:44;;;;;;;4.45;1.60;;;9.30;99.90;;;;;;5028768;28;20072;-88
2022/04/07 06:57:09;;;;;;;2.05;1.67;;;9.30;99.90;;;;;;5025222;28;20473;-85
2022/04/07 06:59:35;;;;;;;1.92;1.42;;;9.30;99.90;;;;;;5023670;28;20189;-85
2022/04/07 07:02:01;;;;;;;5.28;1.80;;;9.30;99.90;;;;;;5023586;28;20041;-86
2022/04/07 07:04:26;;;;;;;3.17;1.85;;;9.30;99.90;;;;;;5024171;28;20021;-84
2022/04/07 07:06:52;;;;;;;2.72;1.60;;;9.40;99.90;;;;;;5025550;28;20101;-85
2022/04/07 07:09:18;;;;;;;2.25;1.70;;;9.60;99.90;;;;;;5030091;28;20022;-89
2022/04/07 07:11:44;;;;;;;2.33;1.60;;;9.60;99.90;;;;;;5042132;28;20014;-87
2022/04/07 07:14:09;;;;;;;3.67;1.40;;;9.60;99.90;;;;;;5042134;28;20080;-87
2022/04/07 07:16:35;;;;;;;1.98;1.00;;;9.60;99.90;;;;;;5059204;28;20044;-86
2022/04/07 07:19:01;;;;;;;2.35;1.10;;;9.60;99.90;;;;;;5041790;28;20088;-88
2022/04/07 07:21:26;;;;;;;3.33;1.10;;;9.70;99.90;;;;;;5041698;28;20030;-85
2022/04/07 07:23:52;;;;;;;2.00;1.13;;;9.70;99.90;;;;;;5041548;28;20081;-85
2022/04/07 07:26:17;;;;;;;1.35;1.20;;;9.70;99.90;;;;;;5042135;28;20025;-84
2022/04/07 07:28:44;;;;;;;7.53;1.27;;;9.70;99.90;;;;;;5039480;28;20057;-88
2022/04/07 07:31:10;;;;;;;1.30;0.70;;;9.60;99.90;;;;;;5024969;28;20025;-87
2022/04/07 07:33:35;;;;;;;1.33;0.98;;;9.70;99.90;;;;;;5023733;28;20091;-87
2022/04/07 07:36:01;;;;;;;1.63;1.13;;;9.60;99.90;;;;;;5023837;28;20026;-87
2022/04/07 07:38:26;;;;;;;3.35;0.93;;;9.60;99.90;;;;;;5023034;28;20028;-89
2022/04/07 07:40:52;;;;;;;2.75;1.20;;;9.60;99.90;;;;;;5040408;28;20018;-86
2022/04/07 07:43:17;;;;;;;2.53;0.80;;;9.50;99.90;;;;;;5023291;28;20389;-88
2022/04/07 07:45:43;;;;;;;1.85;0.80;;;9.50;99.90;;;;;;5021836;28;20370;-88
2022/04/07 07:48:09;;;;;;;3.90;0.73;;;9.40;99.90;;;;;;5022751;28;20032;-87
2022/04/07 07:50:38;;;;;;;0.95;0.60;;;9.40;99.90;;;;;;5022516;28;20030;-88
2022/04/07 07:53:04;;;;;;;2.50;1.00;;;9.40;99.90;;;;;;5021875;28;20120;-87
2022/04/07 07:55:29;;;;;;;2.53;1.00;;;9.40;99.90;;;;;;5040282;28;20136;-87
2022/04/07 07:57:55;;;;;;;3.03;0.93;;;9.30;99.90;;;;;;5039524;28;20045;-88
2022/04/07 08:00:23;;;;;;;5.38;1.00;;;9.30;99.90;;;;;;5040221;28;20044;-87
2022/04/07 08:02:49;;;;;;;1.17;0.70;;;9.30;99.90;;;;;;5040435;28;20437;-87
2022/04/07 08:05:15;;;;;;;3.03;0.73;;;9.30;99.90;;;;;;5041015;28;20115;-86
2022/04/07 08:07:41;;;;;;;1.67;0.77;;;9.40;99.90;;;;;;5022640;28;20040;-85
2022/04/07 08:10:08;;;;;;;1.30;0.70;;;9.40;99.90;;;;;;5022352;28;20025;-85
2022/04/07 08:12:35;;;;;;;0.77;0.57;;;9.50;99.90;;;;;;5048847;22;20041;-78
2022/04/07 08:15:01;;;;;;;2.03;0.60;;;9.50;99.90;;;;;;5026842;28;20022;-76
2022/04/07 08:17:27;;;;;;;2.00;0.50;;;9.50;99.90;;;;;;5025315;28;20056;-78
2022/04/07 08:19:52;;;;;;;4.07;0.70;;;9.50;99.90;;;;;;5024805;28;20022;-81
2022/04/07 08:22:18;;;;;;;1.48;0.82;;;9.50;99.90;;;;;;5027167;28;20030;-79
2022/04/07 08:24:43;;;;;;;2.15;0.63;;;9.40;99.90;;;;;;5037022;22;20054;-84
2022/04/07 08:27:09;;;;;;;4.75;0.60;;;9.40;99.90;;;;;;5047350;28;20025;-85
2022/04/07 08:29:36;;;;;;;1.38;0.63;;;9.30;99.90;;;;;;5048405;28;20036;-83
2022/04/07 08:32:02;;;;;;;0.60;0.60;;;9.30;99.90;;;;;;5046359;28;20476;-85
2022/04/07 08:34:28;;;;;;;2.20;0.60;;;9.40;99.90;;;;;;5047494;28;20104;-82
2022/04/07 08:36:54;;;;;;;1.17;0.60;;;9.40;99.90;;;;;;5046363;28;20400;-85
2022/04/07 08:39:20;;;;;;;0.70;0.45;;;9.50;99.90;;;;;;5048285;28;20024;-82
2022/04/07 08:41:48;;;;;;;2.47;0.43;;;9.60;99.90;;;;;;5051189;28;20041;-84
2022/04/07 08:44:16;;;;;;;0.63;0.40;;;9.70;99.90;;;;;;5055733;28;20017;-81
2022/04/07 08:46:48;;;;;;;1.38;0.43;;;9.80;99.90;;;;;;5057845;28;20024;-81
2022/04/07 08:49:15;;;;;;;1.88;0.50;;;9.90;99.90;;;;;;5059371;28;20039;-78
2022/04/07 08:51:41;;;;;;;0.93;0.63;;;9.90;99.90;;;;;;5053559;28;20051;-83
2022/04/07 08:54:12;;;;;;;0.80;0.40;;;9.90;99.90;;;;;;5050800;28;20056;-85
2022/04/07 08:56:38;;;;;;;1.08;0.50;;;10.00;99.90;;;;;;5067335;28;20037;-84
2022/04/07 08:59:04;;;;;;;2.50;0.32;;;9.90;99.90;;;;;;5064547;28;20021;-85
2022/04/07 09:01:29;;;;;;;1.00;0.40;;;9.90;99.90;;;;;;5064214;28;20057;-82
2022/04/07 09:03:55;;;;;;;0.60;0.30;;;9.90;99.90;;;;;;5045875;28;20025;-84
2022/04/07 09:06:21;;;;;;;1.95;0.40;;;9.80;99.90;;;;;;5044840;28;20032;-86
2022/04/07 09:08:47;;;;;;;3.40;0.88;;;9.80;99.90;;;;;;5063123;28;20057;-85
2022/04/07 09:11:13;;;;;;;0.73;0.32;;;9.80;99.90;;;;;;5063994;28;20045;-86
2022/04/07 09:13:41;;;;;;;0.20;0.20;;;9.90;99.90;;;;;;5046572;28;20036;-83
2022/04/07 09:16:13;;;;;;;0.68;0.40;;;9.90;99.90;;;;;;5063298;28;20029;-81
2022/04/07 09:18:48;;;;;;;1.50;0.30;;;10.00;99.90;;;;;;5064345;28;20029;-84
2022/04/07 09:21:34;;;;;;;0.30;0.30;;;10.00;99.90;;;;;;5044967;28;20021;-85
2022/04/07 09:24:05;;;;;;;0.95;0.45;;;10.10;99.90;;;;;;5045421;28;20071;-81
2022/04/07 09:26:33;;;;;;;0.88;0.40;;;10.20;99.90;;;;;;5044494;28;20037;-83
2022/04/07 09:29:09;;;;;;;1.77;0.50;;;10.40;99.90;;;;;;5061077;28;20029;-85
2022/04/07 09:31:40;;;;;;;3.65;0.70;;;10.50;99.90;;;;;;5044757;28;20029;-86
2022/04/07 09:34:06;;;;;;;0.98;0.70;;;10.50;99.90;;;;;;5043763;28;20539;-85
2022/04/07 09:36:33;;;;;;;1.80;0.73;;;10.50;99.90;;;;;;5042828;28;20120;-84
2022/04/07 09:39:04;;;;;;;1.05;0.80;;;10.50;99.90;;;;;;5041940;28;20032;-85
2022/04/07 09:41:32;;;;;;;6.18;3.25;;;10.50;99.90;;;;;;5039148;28;20032;-87
2022/04/07 09:44:01;;;;;;;5.97;3.53;;;10.50;99.90;;;;;;5039422;28;20025;-87
2022/04/07 09:46:33;;;;;;;5.63;2.25;;;9.70;99.90;;;;;;5021704;28;20033;-83
2022/04/07 09:49:07;;;;;;;6.03;3.60;;;9.20;99.90;;;;;;5022252;28;20031;-84
2022/04/07 09:51:52;;;;;;;7.35;3.65;;;9.00;99.90;;;;;;5021854;28;20029;-86
2022/04/07 09:54:18;;;;;;;3.83;2.50;;;8.90;99.90;;;;;;5020986;28;20029;-85
2022/04/07 09:56:48;;;;;;;3.38;2.22;;;8.90;99.90;;;;;;5021633;28;20401;-87
2022/04/07 09:59:19;;;;;;;1.67;0.80;;;8.80;99.90;;;;;;5022525;28;20075;-86
2022/04/07 10:01:45;;;;;;;1.00;0.70;;;8.70;99.90;;;;;;5025944;28;20021;-85
2022/04/07 10:04:10;;;;;;;1.33;0.55;;;8.60;99.90;;;;;;5033598;28;20051;-83
2022/04/07 10:06:40;;;;;;;2.40;1.05;;;8.50;99.90;;;;;;5034977;28;20033;-86
2022/04/07 10:09:08;;;;;;;0.65;0.50;;;8.50;99.90;;;;;;5023912;28;20041;-86
2022/04/07 10:11:34;;;;;;;2.20;1.02;;;8.40;99.90;;;;;;5043703;28;20025;-88
2022/04/07 10:14:00;;;;;;;3.50;1.30;;;8.50;99.90;;;;;;5056445;28;20128;-84
2022/04/07 10:16:29;;;;;;;3.00;1.55;;;8.40;99.90;;;;;;5047570;28;20388;-87
2022/04/07 10:19:04;;;;;;;4.18;1.95;;;8.40;99.90;;;;;;5023906;28;20017;-88
2022/04/07 10:21:43;;;;;;;4.53;2.55;;;8.50;99.90;;;;;;5023613;28;20025;-86
2022/04/07 10:24:26;;;;;;;2.45;1.30;;;8.70;99.90;;;;;;5023791;28;20086;-86
2022/04/07 10:26:53;;;;;;;2.15;1.48;;;8.80;99.90;;;;;;5023826;28;20512;-83
2022/04/07 10:29:23;;;;;;;2.17;1.42;;;8.80;99.90;;;;;;5024889;28;20033;-84
2022/04/07 10:32:22;;;;;;;2.70;1.00;;;8.90;99.90;;;;;;5026667;28;20093;-88
2022/04/07 10:34:56;;;;;;;6.72;1.33;;;9.00;99.90;;;;;;4973028;28;20041;-85
2022/04/07 10:37:45;;;;;;;1.15;0.85;;;9.10;99.90;;;;;;5026175;28;20062;-83
2022/04/07 10:40:35;;;;;;;4.80;0.98;;;9.10;99.90;;;;;;5027462;28;20025;-85
2022/04/07 10:43:10;;;;;;;1.67;0.88;;;9.20;99.90;;;;;;5030707;28;20018;-86
2022/04/07 10:45:40;;;;;;;1.02;0.80;;;9.50;99.90;;;;;;5054386;28;20030;-85
2022/04/07 10:48:18;;;;;;;3.40;1.30;;;9.70;99.90;;;;;;5028449;28;20040;-87
2022/04/07 10:50:52;;;;;;;1.90;1.20;;;10.00;99.90;;;;;;5025397;28;20040;-88
2022/04/07 10:53:21;;;;;;;2.83;1.20;;;10.20;99.90;;;;;;5047414;28;20031;-87
2022/04/07 10:55:59;;;;;;;2.50;1.20;;;10.50;99.90;;;;;;5029583;28;20025;-85
2022/04/07 10:58:46;;;;;;;1.65;0.80;;;10.80;99.90;;;;;;5027100;28;20029;-87
2022/04/07 11:01:36;;;;;;;2.35;1.00;;;11.10;99.90;;;;;;5022413;28;20021;-85
2022/04/07 11:04:20;;;;;;;1.60;0.95;;;11.50;99.90;;;;;;5022477;28;20100;-86
2022/04/07 11:07:04;;;;;;;0.80;0.70;;;11.60;99.90;;;;;;5022718;28;20099;-84
2022/04/07 11:09:55;;;;;;;1.77;0.90;;;12.00;99.90;;;;;;5026577;28;20021;-85
2022/04/07 11:12:28;;;;;;;3.25;1.35;;;12.60;99.90;;;;;;5030396;28;20260;-86
2022/04/07 11:15:18;;;;;;;5.78;2.35;;;12.80;99.90;;;;;;5026546;28;20029;-83
2022/04/07 11:17:46;;;;;;;2.88;1.30;;;12.70;99.90;;;;;;5042207;28;20033;-84
2022/04/07 11:20:20;;;;;;;2.45;1.02;;;12.50;99.90;;;;;;5042034;28;20034;-82
2022/04/07 11:22:48;;;;;;;2.78;1.35;;;12.60;99.90;;;;;;5042847;28;20025;-82
2022/04/07 11:25:35;;;;;;;2.42;1.20;;;12.70;99.90;;;;;;5041570;28;20044;-86
2022/04/07 11:28:04;;;;;;;3.00;1.08;;;13.10;99.90;;;;;;5041788;28;20041;-86
2022/04/07 11:30:46;;;;;;;1.98;1.17;;;13.10;99.90;;;;;;5042501;28;20473;-87
2022/04/07 11:33:18;;;;;;;2.05;0.90;;;13.50;99.90;;;;;;5024875;28;20457;-82
2022/04/07 11:35:59;;;;;;;2.40;0.90;;;13.80;99.90;;;;;;5043371;28;20026;-83
2022/04/07 11:38:45;;;;;;;2.70;1.30;;;13.60;99.90;;;;;;5043217;28;20091;-80
2022/04/07 11:41:14;;;;;;;3.75;1.17;;;13.10;99.90;;;;;;5028149;28;20021;-84
2022/04/07 11:43:50;;;;;;;1.95;1.08;;;12.80;99.90;;;;;;5045706;28;20021;-86
2022/04/07 11:46:25;;;;;;;1.33;1.00;;;12.50;99.90;;;;;;5044496;28;20377;-82
2022/04/07 11:48:51;;;;;;;2.78;1.00;;;12.60;99.90;;;;;;5029912;28;20142;-80
2022/04/07 11:51:17;;;;;;;1.70;0.73;;;13.20;99.90;;;;;;5050481;28;20022;-85
2022/04/07 11:53:52;;;;;;;2.40;1.15;;;13.80;99.90;;;;;;5046519;28;20044;-83
2022/04/07 11:56:31;;;;;;;2.05;0.73;;;14.40;99.90;;;;;;5043177;28;20100;-84
2022/04/07 11:59:02;;;;;;;1.88;0.60;;;14.50;99.90;;;;;;5040744;28;20049;-83
2022/04/07 12:01:29;;;;;;;2.95;0.60;;;14.00;99.90;;;;;;5021689;28;20029;-83
2022/04/07 12:03:56;;;;;;;1.52;0.73;;;14.00;99.90;;;;;;5020372;28;20025;-84
2022/04/07 12:06:26;;;;;;;1.45;0.60;;;14.00;99.90;;;;;;5036335;28;20025;-85
2022/04/07 12:08:53;;;;;;;2.15;0.80;;;13.80;99.90;;;;;;5037607;28;20043;-84
2022/04/07 12:11:23;;;;;;;1.45;0.50;;;13.50;99.90;;;;;;5027405;28;20049;-85
2022/04/07 12:13:53;;;;;;;2.53;0.90;;;13.00;99.90;;;;;;5028456;28;20021;-84
2022/04/07 12:16:24;;;;;;;2.97;0.77;;;12.70;99.90;;;;;;5028386;28;20477;-82
2022/04/07 12:19:04;;;;;;;2.42;0.80;;;12.60;99.90;;;;;;5027593;28;20026;-80
2022/04/07 12:21:56;;;;;;;1.80;0.98;;;12.60;99.90;;;;;;5044944;28;20018;-86
2022/04/07 12:24:25;;;;;;;2.33;0.60;;;12.60;99.90;;;;;;5027909;28;20032;-83
2022/04/07 12:26:52;;;;;;;3.90;1.48;;;12.50;99.90;;;;;;5044504;28;20034;-85
2022/04/07 12:29:19;;;;;;;5.30;0.95;;;12.40;99.90;;;;;;5044352;28;20455;-86
2022/04/07 12:31:45;;;;;;;4.35;1.13;;;12.40;99.90;;;;;;5023244;28;20088;-85
2022/04/07 12:34:12;;;;;;;3.45;1.15;;;13.20;99.90;;;;;;5024669;28;20116;-83
2022/04/07 12:36:41;;;;;;;3.70;0.80;;;13.60;99.90;;;;;;5041684;28;20037;-84
2022/04/07 12:39:12;;;;;;;3.10;0.95;;;13.30;99.90;;;;;;5024639;28;20067;-86
2022/04/07 12:41:43;;;;;;;4.47;1.98;;;13.00;99.90;;;;;;5045063;28;20108;-86
2022/04/07 12:44:10;;;;;;;6.80;2.38;;;12.60;99.90;;;;;;5053610;28;20025;-84
2022/04/07 12:46:51;;;;;;;7.28;2.38;;;12.30;99.90;;;;;;5063692;28;20029;-83
2022/04/07 12:49:37;;;;;;;13.90;3.60;;;11.30;99.90;;;;;;5065030;28;20033;-85
2022/04/07 12:52:14;;;;;;;12.98;3.97;;;10.00;99.90;;;;;;5045005;28;20491;-86
2022/04/07 12:55:01;;;;;;;11.07;3.75;;;9.40;99.90;;;;;;5043159;28;20106;-82
2022/04/07 12:57:34;;;;;;;11.63;4.15;;;8.90;99.90;;;;;;5059925;28;20029;-84
2022/04/07 13:00:07;;;;;;;9.77;3.80;;;8.70;99.90;;;;;;5041993;28;20473;-84
2022/04/07 13:02:53;;;;;;;11.88;3.90;;;8.60;99.90;;;;;;5058120;28;20171;-83